Time;durP1;ratioP1;P1;durP2;ratioP2;P2;SDS_P1;SDS_P2;PMS_P1;PMS_P2;Temp;Humidity;BMP_temperature;BMP_pressure;BME280_temperature;BME280_humidity;BME280_pressure;Samples;Min_cycle;Max_cycle;Signal;HPM_P1;HPM_P2
2021/08/21 00:01:56;;;;;;;4.57;3.45;;;14.80;99.90;;;;;;4973542;28;20050;-92
2021/08/21 00:04:22;;;;;;;4.57;3.15;;;14.70;99.90;;;;;;4973672;28;20471;-93
2021/08/21 00:06:47;;;;;;;5.43;3.03;;;14.70;99.90;;;;;;4973296;28;20537;-93
2021/08/21 00:09:13;;;;;;;4.43;3.38;;;14.70;99.90;;;;;;4973162;28;20039;-93
2021/08/21 00:11:40;;;;;;;4.80;3.15;;;14.60;99.90;;;;;;4973370;28;20108;-93
2021/08/21 00:14:06;;;;;;;7.63;3.72;;;14.60;99.90;;;;;;4973377;28;20054;-93
2021/08/21 00:16:41;;;;;;;6.80;2.97;;;14.60;99.90;;;;;;4973178;28;20031;-93
2021/08/21 00:19:07;;;;;;;4.65;3.20;;;14.60;99.90;;;;;;4972971;28;20038;-93
2021/08/21 00:21:32;;;;;;;4.20;3.00;;;14.60;99.90;;;;;;4989421;28;20035;-93
2021/08/21 00:23:58;;;;;;;3.95;2.42;;;14.60;99.90;;;;;;4988981;28;20023;-93
2021/08/21 00:26:24;;;;;;;4.70;3.17;;;14.50;99.90;;;;;;5005367;28;20039;-93
2021/08/21 00:28:49;;;;;;;4.35;2.90;;;14.50;99.90;;;;;;4988790;28;20034;-94
2021/08/21 00:31:15;;;;;;;4.03;2.92;;;14.40;99.90;;;;;;4988952;28;20038;-94
2021/08/21 00:33:41;;;;;;;3.92;3.00;;;14.50;99.90;;;;;;4989432;28;20055;-94
2021/08/21 00:36:06;;;;;;;4.60;2.92;;;14.50;99.90;;;;;;4989708;28;20034;-94
2021/08/21 00:38:32;;;;;;;3.28;2.47;;;14.40;99.90;;;;;;4974392;28;20019;-94
2021/08/21 00:40:58;;;;;;;6.40;2.83;;;14.40;99.90;;;;;;4972614;28;20558;-94
2021/08/21 00:43:24;;;;;;;3.53;2.55;;;14.40;99.90;;;;;;4971971;28;20042;-94
2021/08/21 00:45:49;;;;;;;5.85;2.83;;;14.40;99.90;;;;;;4971949;28;20030;-94
2021/08/21 00:48:15;;;;;;;3.85;2.85;;;14.40;99.90;;;;;;4972391;28;20042;-95
2021/08/21 00:50:42;;;;;;;4.05;2.28;;;14.40;99.90;;;;;;4972591;28;20042;-95
2021/08/21 00:53:08;;;;;;;4.03;2.70;;;14.40;99.90;;;;;;4988551;28;20019;-94
2021/08/21 00:55:33;;;;;;;3.75;2.20;;;14.40;99.90;;;;;;4988374;28;20049;-94
2021/08/21 00:57:59;;;;;;;3.67;2.70;;;14.30;99.90;;;;;;4972410;28;20030;-93
2021/08/21 01:00:25;;;;;;;4.93;2.20;;;14.30;99.90;;;;;;4972548;28;20023;-92
2021/08/21 01:02:51;;;;;;;5.28;2.47;;;14.30;99.90;;;;;;4972519;28;20497;-95
2021/08/21 01:05:16;;;;;;;4.35;2.97;;;14.20;99.90;;;;;;4972583;28;20027;-95
2021/08/21 01:07:44;;;;;;;3.95;2.15;;;14.20;99.90;;;;;;4972309;28;20039;-95
2021/08/21 01:10:13;;;;;;;5.55;2.75;;;14.20;99.90;;;;;;4972062;28;20050;-95
2021/08/21 01:12:43;;;;;;;3.08;2.30;;;14.20;99.90;;;;;;4988520;28;20069;-96
2021/08/21 01:15:10;;;;;;;5.25;3.00;;;14.10;99.90;;;;;;4972098;28;20026;-95
2021/08/21 01:17:36;;;;;;;4.38;3.22;;;14.10;99.90;;;;;;4972014;28;20035;-94
2021/08/21 01:20:04;;;;;;;4.72;2.50;;;14.10;99.90;;;;;;4987970;28;20031;-95
2021/08/21 01:22:32;;;;;;;3.38;2.42;;;14.10;99.90;;;;;;4988194;28;20027;-94
2021/08/21 01:25:15;;;;;;;4.75;2.53;;;14.00;99.90;;;;;;5004514;28;20045;-94
2021/08/21 01:27:41;;;;;;;3.35;2.13;;;14.00;99.90;;;;;;4988182;28;20031;-94
2021/08/21 01:30:19;;;;;;;2.92;2.00;;;14.00;99.90;;;;;;4987644;28;20100;-94
2021/08/21 01:32:51;;;;;;;3.08;2.03;;;14.00;99.90;;;;;;5004132;28;20027;-95
2021/08/21 01:35:21;;;;;;;3.50;1.67;;;13.90;99.90;;;;;;5004044;28;20050;-94
2021/08/21 01:37:47;;;;;;;3.05;1.75;;;13.90;99.90;;;;;;5004354;28;20031;-95
2021/08/21 01:40:32;;;;;;;2.97;2.03;;;14.00;99.90;;;;;;5001526;28;20034;-95
2021/08/21 01:43:01;;;;;;;3.80;1.73;;;13.90;99.90;;;;;;5003911;28;20031;-95
2021/08/21 01:45:29;;;;;;;3.40;1.75;;;13.90;99.90;;;;;;5003758;28;20035;-96
2021/08/21 01:47:55;;;;;;;2.88;1.95;;;13.90;99.90;;;;;;5003654;28;20050;-95
2021/08/21 01:50:21;;;;;;;2.42;1.70;;;13.90;99.90;;;;;;5004019;28;20106;-95
2021/08/21 01:52:51;;;;;;;2.78;1.75;;;13.80;99.90;;;;;;5004150;28;20031;-95
2021/08/21 01:55:29;;;;;;;5.30;2.00;;;13.80;99.90;;;;;;5003303;28;20031;-95
2021/08/21 01:57:57;;;;;;;2.72;1.92;;;13.80;99.90;;;;;;5003661;28;20058;-95
2021/08/21 02:00:37;;;;;;;3.08;2.13;;;13.80;99.90;;;;;;5003619;28;20060;-95
2021/08/21 02:03:02;;;;;;;3.10;2.15;;;13.70;99.90;;;;;;4987663;28;20058;-94
2021/08/21 02:05:33;;;;;;;3.67;1.88;;;13.70;99.90;;;;;;5003765;28;20031;-93
2021/08/21 02:08:00;;;;;;;2.88;2.08;;;13.70;99.90;;;;;;4987340;28;20038;-95
2021/08/21 02:10:27;;;;;;;4.20;2.10;;;13.70;99.90;;;;;;5003333;28;20483;-95
2021/08/21 02:12:53;;;;;;;2.65;1.55;;;13.70;99.90;;;;;;5003591;28;20035;-96
2021/08/21 02:15:22;;;;;;;3.28;1.85;;;13.80;99.90;;;;;;5003327;28;20023;-96
2021/08/21 02:17:50;;;;;;;3.53;1.90;;;13.80;99.90;;;;;;4971980;28;20039;-96
2021/08/21 02:20:29;;;;;;;3.22;1.90;;;13.70;99.90;;;;;;4953344;29;20483;-95
2021/08/21 02:22:55;;;;;;;2.53;1.90;;;13.70;99.90;;;;;;4951986;29;20031;-95
2021/08/21 02:25:22;;;;;;;3.85;2.25;;;13.80;99.90;;;;;;4952028;29;20031;-95
2021/08/21 02:27:59;;;;;;;4.07;2.40;;;13.70;99.90;;;;;;4967661;29;20033;-93
2021/08/21 02:30:26;;;;;;;3.22;2.05;;;13.70;99.90;;;;;;4977123;28;20039;-95
2021/08/21 02:32:51;;;;;;;2.95;1.65;;;13.70;99.90;;;;;;4987058;28;20058;-96
2021/08/21 02:35:17;;;;;;;3.03;1.80;;;13.70;99.90;;;;;;4987076;28;20033;-95
2021/08/21 02:37:43;;;;;;;2.90;1.88;;;13.60;99.90;;;;;;4987003;28;20063;-96
2021/08/21 02:40:09;;;;;;;3.97;1.70;;;13.60;99.90;;;;;;4986720;28;20029;-95
2021/08/21 02:42:35;;;;;;;3.95;2.00;;;13.60;99.90;;;;;;4986646;28;20511;-95
2021/08/21 02:45:01;;;;;;;2.70;1.60;;;13.60;99.90;;;;;;4986594;28;20034;-96
2021/08/21 02:47:26;;;;;;;3.45;2.25;;;13.60;99.90;;;;;;4986324;28;20058;-95
2021/08/21 02:49:52;;;;;;;2.65;1.85;;;13.50;99.90;;;;;;4986448;28;20035;-95
2021/08/21 02:52:17;;;;;;;4.43;2.60;;;13.50;99.90;;;;;;5002719;28;20046;-96
2021/08/21 02:54:43;;;;;;;4.35;2.13;;;13.40;99.90;;;;;;4986316;28;20037;-95
2021/08/21 02:57:09;;;;;;;3.58;2.35;;;13.30;99.90;;;;;;4986405;28;20038;-96
2021/08/21 02:59:37;;;;;;;4.07;2.85;;;13.30;99.90;;;;;;4986861;28;20023;-95
2021/08/21 03:02:04;;;;;;;4.72;2.10;;;13.40;99.90;;;;;;4987496;28;20026;-95
2021/08/21 03:04:32;;;;;;;3.67;2.40;;;13.40;99.90;;;;;;4987633;28;20034;-96
2021/08/21 03:06:58;;;;;;;2.85;1.80;;;13.30;99.90;;;;;;4986020;28;20023;-96
2021/08/21 03:09:45;;;;;;;2.35;1.50;;;13.30;99.90;;;;;;4986081;28;20034;-95
2021/08/21 03:12:11;;;;;;;3.30;1.70;;;13.30;99.90;;;;;;4986559;28;20039;-96
2021/08/21 03:14:48;;;;;;;2.63;1.77;;;13.30;99.90;;;;;;4986209;28;20031;-96
2021/08/21 03:17:13;;;;;;;3.10;1.58;;;13.30;99.90;;;;;;4976252;28;20081;-96
2021/08/21 03:19:42;;;;;;;2.97;1.77;;;13.40;99.90;;;;;;4966728;28;20047;-95
2021/08/21 03:22:07;;;;;;;2.75;1.70;;;13.40;99.90;;;;;;4966805;29;20031;-96
2021/08/21 03:24:34;;;;;;;3.50;2.22;;;13.50;99.90;;;;;;4966921;28;20031;-96
2021/08/21 03:27:00;;;;;;;3.75;2.25;;;13.60;99.90;;;;;;4966890;28;20110;-96
2021/08/21 03:29:26;;;;;;;4.70;2.85;;;13.70;99.90;;;;;;4968520;28;20031;-95
2021/08/21 03:31:51;;;;;;;6.00;2.53;;;13.80;99.90;;;;;;4969723;28;20043;-96
2021/08/21 03:34:17;;;;;;;3.50;2.05;;;13.70;99.90;;;;;;4986273;28;20031;-96
2021/08/21 03:36:43;;;;;;;3.90;2.00;;;13.70;99.90;;;;;;4985876;28;20054;-95
2021/08/21 03:39:09;;;;;;;3.90;2.42;;;13.70;99.90;;;;;;4985768;28;20057;-95
2021/08/21 03:41:36;;;;;;;4.25;2.10;;;13.70;99.90;;;;;;4970011;28;20022;-95
2021/08/21 03:44:03;;;;;;;4.40;2.55;;;13.80;99.90;;;;;;4970027;28;20030;-96
2021/08/21 03:46:31;;;;;;;4.35;1.88;;;13.90;99.90;;;;;;4969912;28;20094;-96
2021/08/21 03:48:57;;;;;;;4.45;2.10;;;13.90;99.90;;;;;;4985693;28;20047;-96
2021/08/21 03:51:26;;;;;;;4.35;1.80;;;13.90;99.90;;;;;;4986079;28;20043;-96
2021/08/21 03:53:53;;;;;;;3.83;2.90;;;13.80;99.90;;;;;;4970045;28;20483;-96
2021/08/21 03:56:19;;;;;;;5.88;2.30;;;13.80;99.90;;;;;;4970109;28;20033;-96
2021/08/21 03:58:52;;;;;;;3.28;2.08;;;13.80;99.90;;;;;;4971083;28;20066;-96
2021/08/21 04:01:18;;;;;;;4.28;2.20;;;13.80;99.90;;;;;;4969942;28;20031;-96
2021/08/21 04:03:46;;;;;;;3.40;2.03;;;13.80;99.90;;;;;;4985783;28;20054;-94
2021/08/21 04:06:12;;;;;;;6.60;2.70;;;13.90;99.90;;;;;;4969660;28;20031;-96
2021/08/21 04:08:41;;;;;;;5.10;2.92;;;13.90;99.90;;;;;;4969909;28;20030;-95
2021/08/21 04:11:07;;;;;;;4.72;2.22;;;13.80;99.90;;;;;;4969677;28;20063;-96
2021/08/21 04:13:41;;;;;;;4.82;2.47;;;13.80;99.90;;;;;;4985637;28;20027;-94
2021/08/21 04:16:08;;;;;;;3.85;2.10;;;13.80;99.90;;;;;;4969687;28;20042;-96
2021/08/21 04:18:34;;;;;;;5.90;2.20;;;13.90;99.90;;;;;;4970731;28;20046;-95
2021/08/21 04:21:00;;;;;;;3.78;2.13;;;13.90;99.90;;;;;;4973324;28;20034;-96
2021/08/21 04:23:26;;;;;;;4.63;2.30;;;13.80;99.90;;;;;;4973205;28;20023;-96
2021/08/21 04:26:01;;;;;;;4.68;2.42;;;13.90;99.90;;;;;;4990119;28;20099;-96
2021/08/21 04:28:27;;;;;;;2.47;1.83;;;13.90;99.90;;;;;;4972977;28;20027;-96
2021/08/21 04:30:54;;;;;;;4.35;2.22;;;13.80;99.90;;;;;;4973059;28;20043;-96
2021/08/21 04:33:20;;;;;;;7.28;2.45;;;13.80;99.90;;;;;;4989209;28;20041;-96
2021/08/21 04:35:46;;;;;;;3.90;2.47;;;13.70;99.90;;;;;;4972995;28;20023;-95
2021/08/21 04:38:13;;;;;;;3.97;1.80;;;13.70;99.90;;;;;;4972590;28;20066;-96
2021/08/21 04:40:50;;;;;;;4.13;2.53;;;13.70;99.90;;;;;;4988811;28;20027;-96
2021/08/21 04:43:19;;;;;;;5.00;2.40;;;13.70;99.90;;;;;;4972434;28;20041;-96
2021/08/21 04:45:45;;;;;;;3.15;2.20;;;13.70;99.90;;;;;;4988576;28;20119;-95
2021/08/21 04:48:11;;;;;;;3.63;2.22;;;13.80;99.90;;;;;;4987845;28;20057;-95
2021/08/21 04:50:37;;;;;;;4.18;2.38;;;13.80;99.90;;;;;;4972020;28;20039;-96
2021/08/21 04:53:04;;;;;;;3.22;1.75;;;13.80;99.90;;;;;;4988134;28;20026;-96
2021/08/21 04:55:32;;;;;;;4.80;2.22;;;13.90;99.90;;;;;;4988130;28;20031;-96
2021/08/21 04:57:58;;;;;;;3.67;1.80;;;13.90;99.90;;;;;;4971753;28;20035;-93
2021/08/21 05:00:25;;;;;;;3.90;2.70;;;13.90;99.90;;;;;;4972024;28;20038;-96
2021/08/21 05:03:13;;;;;;;5.30;2.45;;;14.00;99.90;;;;;;4987601;28;20522;-96
2021/08/21 05:05:39;;;;;;;3.40;2.10;;;13.90;99.90;;;;;;4972070;28;20030;-94
2021/08/21 05:08:06;;;;;;;4.13;2.15;;;14.00;99.90;;;;;;4987673;28;20043;-96
2021/08/21 05:10:33;;;;;;;2.78;1.77;;;14.00;99.90;;;;;;4987614;28;20058;-95
2021/08/21 05:12:58;;;;;;;4.28;1.92;;;14.00;99.90;;;;;;4987720;28;20034;-96
2021/08/21 05:15:25;;;;;;;4.13;2.65;;;14.20;99.90;;;;;;4984236;28;20092;-96
2021/08/21 05:18:12;;;;;;;3.35;1.83;;;14.30;99.90;;;;;;4998363;28;20035;-96
2021/08/21 05:20:44;;;;;;;2.80;1.85;;;14.40;99.90;;;;;;4971902;28;20151;-96
2021/08/21 05:23:14;;;;;;;4.53;2.42;;;14.50;99.90;;;;;;4971947;28;20030;-96
2021/08/21 05:25:44;;;;;;;4.10;2.13;;;14.60;99.90;;;;;;4971438;28;20035;-96
2021/08/21 05:28:09;;;;;;;4.28;2.75;;;14.70;99.90;;;;;;4971331;28;20035;-96
2021/08/21 05:30:38;;;;;;;4.63;3.13;;;14.80;99.90;;;;;;4970707;28;20039;-96
2021/08/21 05:33:09;;;;;;;4.75;3.17;;;14.80;99.90;;;;;;4987511;28;20039;-94
2021/08/21 05:35:35;;;;;;;4.30;3.03;;;14.90;99.90;;;;;;4971103;28;20023;-96
2021/08/21 05:38:01;;;;;;;5.07;3.30;;;14.90;99.90;;;;;;4986940;28;20045;-96
2021/08/21 05:40:27;;;;;;;5.28;3.47;;;15.10;99.90;;;;;;4972044;28;20030;-96
2021/08/21 05:42:52;;;;;;;5.35;3.47;;;15.20;99.90;;;;;;4971824;28;20030;-96
2021/08/21 05:45:18;;;;;;;6.35;3.88;;;15.10;99.90;;;;;;4971256;28;20050;-96
2021/08/21 05:47:45;;;;;;;5.45;4.03;;;15.20;99.90;;;;;;4972615;28;20057;-96
2021/08/21 05:50:11;;;;;;;5.53;3.17;;;15.20;99.90;;;;;;4991208;28;20503;-96
2021/08/21 05:52:37;;;;;;;6.60;4.35;;;15.30;99.90;;;;;;4972791;28;20034;-96
2021/08/21 05:55:04;;;;;;;5.93;4.22;;;15.30;99.90;;;;;;4984991;28;20050;-96
2021/08/21 05:57:40;;;;;;;6.20;4.22;;;15.40;99.90;;;;;;4973126;28;20068;-96
2021/08/21 06:00:09;;;;;;;7.13;5.22;;;15.50;99.90;;;;;;4974220;28;20084;-96
2021/08/21 06:02:39;;;;;;;8.88;5.07;;;15.50;99.90;;;;;;4994475;28;20041;-96
2021/08/21 06:05:04;;;;;;;10.95;5.93;;;15.60;99.90;;;;;;4979964;28;20030;-96
2021/08/21 06:07:31;;;;;;;9.50;6.18;;;15.60;99.90;;;;;;4981285;28;20038;-96
2021/08/21 06:10:08;;;;;;;9.15;6.20;;;15.60;99.90;;;;;;4993950;28;20027;-96
2021/08/21 06:12:34;;;;;;;7.63;5.57;;;15.60;99.90;;;;;;4978879;28;20043;-94
2021/08/21 06:15:00;;;;;;;9.90;6.85;;;15.70;99.90;;;;;;4981454;28;20014;-96
2021/08/21 06:17:26;;;;;;;10.55;7.85;;;15.90;99.90;;;;;;4981324;28;20149;-94
2021/08/21 06:19:57;;;;;;;11.48;7.43;;;15.90;99.90;;;;;;4997922;28;20015;-96
2021/08/21 06:22:23;;;;;;;12.50;8.27;;;16.00;99.90;;;;;;4995638;28;20046;-96
2021/08/21 06:24:49;;;;;;;12.32;8.07;;;16.00;99.90;;;;;;4997241;28;20030;-95
2021/08/21 06:27:15;;;;;;;12.73;8.63;;;16.00;99.90;;;;;;4981944;28;20066;-96
2021/08/21 06:29:44;;;;;;;13.13;8.63;;;16.00;99.90;;;;;;4980618;28;20050;-96
2021/08/21 06:32:10;;;;;;;11.57;7.72;;;16.00;99.90;;;;;;4980323;28;20038;-96
2021/08/21 06:34:36;;;;;;;11.88;7.97;;;16.10;99.90;;;;;;4979534;28;20094;-96
2021/08/21 06:37:02;;;;;;;13.77;8.82;;;16.10;99.90;;;;;;4977573;28;20030;-95
2021/08/21 06:39:28;;;;;;;11.98;8.50;;;16.20;99.90;;;;;;4991273;28;20042;-96
2021/08/21 06:41:54;;;;;;;12.02;8.48;;;16.30;99.90;;;;;;4991744;28;20031;-96
2021/08/21 06:44:21;;;;;;;11.73;8.45;;;16.30;99.90;;;;;;4973696;28;20030;-96
2021/08/21 06:46:47;;;;;;;14.15;9.43;;;16.40;99.90;;;;;;4990083;28;20030;-96
2021/08/21 06:49:14;;;;;;;13.95;9.63;;;16.40;99.90;;;;;;5003976;28;20070;-96
2021/08/21 06:51:40;;;;;;;13.43;9.43;;;16.60;99.90;;;;;;4988085;28;20042;-96
2021/08/21 06:54:05;;;;;;;11.45;8.85;;;16.60;99.90;;;;;;4974008;28;20027;-95
2021/08/21 06:56:31;;;;;;;12.98;9.20;;;16.70;99.90;;;;;;4973977;28;20102;-96
2021/08/21 06:58:57;;;;;;;14.77;11.25;;;16.80;99.90;;;;;;4970799;28;20038;-96
2021/08/21 07:01:22;;;;;;;14.18;10.30;;;16.90;99.90;;;;;;4986815;28;20034;-96
2021/08/21 07:03:48;;;;;;;15.40;10.43;;;16.90;99.90;;;;;;4971008;28;20030;-96
2021/08/21 07:06:13;;;;;;;15.40;10.82;;;17.10;99.90;;;;;;4987905;28;20481;-96
2021/08/21 07:08:39;;;;;;;17.02;11.10;;;17.20;99.90;;;;;;4970332;28;20468;-96
2021/08/21 07:11:05;;;;;;;15.20;11.32;;;17.30;99.90;;;;;;5002203;28;20495;-96
2021/08/21 07:13:31;;;;;;;19.17;11.20;;;17.40;99.90;;;;;;4970499;28;20023;-95
2021/08/21 07:15:56;;;;;;;16.58;10.43;;;17.50;99.90;;;;;;4969618;28;20038;-96
2021/08/21 07:18:22;;;;;;;15.80;9.88;;;17.50;99.90;;;;;;4969648;28;20038;-96
2021/08/21 07:20:47;;;;;;;15.65;11.05;;;17.50;99.90;;;;;;4985523;28;20057;-95
2021/08/21 07:23:14;;;;;;;15.63;10.38;;;17.60;99.90;;;;;;4969377;28;20038;-96
2021/08/21 07:25:40;;;;;;;16.70;10.98;;;17.60;99.90;;;;;;4969775;28;20026;-96
2021/08/21 07:28:06;;;;;;;14.55;9.73;;;17.80;99.90;;;;;;4969890;28;20563;-94
2021/08/21 07:30:32;;;;;;;17.05;10.15;;;18.00;99.90;;;;;;4994249;28;20143;-96
2021/08/21 07:32:57;;;;;;;12.48;9.93;;;18.10;99.90;;;;;;4969487;28;20064;-94
2021/08/21 07:35:23;;;;;;;12.90;8.85;;;18.10;99.90;;;;;;4985045;28;20043;-95
2021/08/21 07:37:49;;;;;;;13.82;8.57;;;18.10;99.90;;;;;;4985436;28;20031;-95
2021/08/21 07:40:14;;;;;;;13.32;9.40;;;18.30;99.90;;;;;;4968593;28;20125;-95
2021/08/21 07:42:40;;;;;;;15.15;10.13;;;18.30;99.90;;;;;;4969571;28;20026;-96
2021/08/21 07:45:06;;;;;;;13.43;9.90;;;18.60;99.90;;;;;;4968870;28;20099;-96
2021/08/21 07:47:32;;;;;;;11.75;8.13;;;18.70;99.90;;;;;;5002678;23;20050;-96
2021/08/21 07:49:58;;;;;;;11.68;8.82;;;18.90;99.90;;;;;;4996396;28;20034;-95
2021/08/21 07:52:25;;;;;;;12.80;8.57;;;19.10;99.90;;;;;;4999059;28;20087;-95
2021/08/21 07:54:51;;;;;;;13.40;9.10;;;19.10;99.90;;;;;;5010968;28;20056;-96
2021/08/21 07:57:16;;;;;;;13.27;9.10;;;19.50;99.90;;;;;;4992317;28;20022;-95
2021/08/21 07:59:42;;;;;;;10.88;8.02;;;19.60;99.90;;;;;;5009207;28;20023;-95
2021/08/21 08:02:09;;;;;;;12.48;8.95;;;19.80;99.90;;;;;;4994207;28;20490;-96
2021/08/21 08:04:35;;;;;;;11.77;8.57;;;19.70;99.90;;;;;;4992605;28;20038;-95
2021/08/21 08:07:01;;;;;;;10.73;8.27;;;19.90;99.90;;;;;;5009038;28;20054;-95
2021/08/21 08:09:28;;;;;;;11.60;7.90;;;19.90;99.90;;;;;;5008631;28;20038;-95
2021/08/21 08:11:54;;;;;;;11.07;7.72;;;20.00;99.90;;;;;;5009849;28;20097;-94
2021/08/21 08:14:20;;;;;;;13.38;9.60;;;20.40;99.90;;;;;;4992385;28;20030;-94
2021/08/21 08:16:46;;;;;;;12.48;9.18;;;20.20;99.90;;;;;;4991146;28;20069;-96
2021/08/21 08:19:11;;;;;;;11.32;7.60;;;20.40;99.90;;;;;;4990051;28;20053;-95
2021/08/21 08:22:08;;;;;;;9.40;7.22;;;20.50;99.90;;;;;;4987874;28;20023;-95
2021/08/21 08:24:36;;;;;;;9.05;7.13;;;20.80;99.90;;;;;;5001073;28;20026;-96
2021/08/21 08:27:03;;;;;;;12.48;7.57;;;20.80;99.90;;;;;;4996317;28;20038;-94
2021/08/21 08:29:28;;;;;;;6.95;5.32;;;21.00;99.90;;;;;;4983087;28;20427;-94
2021/08/21 08:31:54;;;;;;;9.27;5.50;;;21.10;99.90;;;;;;4992206;28;20102;-96
2021/08/21 08:34:19;;;;;;;11.93;8.05;;;21.10;99.90;;;;;;5007049;28;20027;-95
2021/08/21 08:36:45;;;;;;;10.93;7.65;;;20.80;99.90;;;;;;4991092;28;20034;-93
2021/08/21 08:39:11;;;;;;;9.73;6.85;;;20.60;99.90;;;;;;4984484;28;20098;-94
2021/08/21 08:41:40;;;;;;;7.93;6.32;;;20.90;99.90;;;;;;4999355;28;20059;-96
2021/08/21 08:44:10;;;;;;;10.38;6.32;;;21.00;99.90;;;;;;4990196;28;20049;-94
2021/08/21 08:46:37;;;;;;;10.65;5.82;;;21.20;99.90;;;;;;4990916;28;20126;-93
2021/08/21 08:49:05;;;;;;;9.32;6.70;;;21.20;99.90;;;;;;5007206;28;20052;-94
2021/08/21 08:51:32;;;;;;;7.22;5.60;;;21.10;99.90;;;;;;4990971;28;20077;-94
2021/08/21 08:53:58;;;;;;;6.47;5.00;;;21.10;99.90;;;;;;4990933;28;20042;-94
2021/08/21 08:56:24;;;;;;;8.80;5.97;;;21.30;99.90;;;;;;4991114;28;20034;-96
2021/08/21 08:58:49;;;;;;;7.15;5.70;;;21.70;99.90;;;;;;4991121;28;20471;-94
2021/08/21 09:01:15;;;;;;;5.90;4.78;;;22.00;99.90;;;;;;4991084;28;20034;-96
2021/08/21 09:03:41;;;;;;;6.38;4.50;;;22.10;99.90;;;;;;4990550;28;20038;-92
2021/08/21 09:06:10;;;;;;;6.80;4.43;;;22.30;99.90;;;;;;4989751;28;20229;-96
2021/08/21 09:08:36;;;;;;;;;;;22.20;99.90;;;;;;5007712;28;20073;-95
2021/08/21 09:11:19;;;;;;;4.38;3.13;;;22.60;99.90;;;;;;4991008;28;19918;-95
2021/08/21 09:13:45;;;;;;;4.82;3.78;;;22.80;99.90;;;;;;4993084;28;20040;-96
2021/08/21 09:16:10;;;;;;;5.82;4.32;;;23.00;99.90;;;;;;4995629;28;20046;-94
2021/08/21 09:18:37;;;;;;;5.55;4.07;;;23.00;99.90;;;;;;4991608;28;20086;-96
2021/08/21 09:21:04;;;;;;;6.28;3.90;;;23.00;99.90;;;;;;4996267;28;20034;-93
2021/08/21 09:23:46;;;;;;;6.55;2.97;;;23.10;99.90;;;;;;4993134;28;20027;-95
2021/08/21 09:26:14;;;;;;;3.30;2.92;;;23.20;99.90;;;;;;4990977;28;20126;-94
2021/08/21 09:28:43;;;;;;;5.80;2.92;;;23.30;99.90;;;;;;4992349;28;20027;-95
2021/08/21 09:31:18;;;;;;;4.13;3.17;;;23.30;99.90;;;;;;4993258;28;20069;-95
2021/08/21 09:34:06;;;;;;;;;;;23.10;99.90;;;;;;4989955;23;20047;-89
2021/08/21 09:36:40;;;;;;;3.55;1.80;;;23.00;99.90;;;;;;4992916;23;19905;-96
2021/08/21 09:39:12;;;;;;;3.17;2.28;;;23.50;99.90;;;;;;5007570;28;20426;-94
2021/08/21 09:42:11;;;;;;;4.95;2.15;;;23.80;99.90;;;;;;5001689;28;20049;-96
2021/08/21 09:44:43;;;;;;;3.03;1.48;;;24.00;99.90;;;;;;4980940;28;20039;-96
2021/08/21 09:47:12;;;;;;;2.45;1.42;;;24.00;99.90;;;;;;4993391;28;20090;-93
2021/08/21 09:49:40;;;;;;;2.53;1.48;;;23.80;99.90;;;;;;4979155;28;20106;-96
2021/08/21 09:52:07;;;;;;;5.15;1.27;;;23.90;99.90;;;;;;5009842;28;20031;-96
2021/08/21 09:54:33;;;;;;;4.80;2.25;;;24.00;99.90;;;;;;4989619;28;20074;-96
2021/08/21 09:56:59;;;;;;;2.97;1.38;;;24.20;99.90;;;;;;4986794;28;20542;-96
2021/08/21 09:59:42;;;;;;;2.22;0.90;;;24.20;99.90;;;;;;4971021;28;20023;-92
2021/08/21 10:02:13;;;;;;;3.30;0.98;;;24.20;99.90;;;;;;4970913;28;20050;-95
2021/08/21 10:04:41;;;;;;;2.35;1.55;;;24.70;99.90;;;;;;4971037;28;20131;-96
2021/08/21 10:07:09;;;;;;;3.85;0.82;;;24.90;99.90;;;;;;4993477;23;20046;-95
2021/08/21 10:09:38;;;;;;;2.15;1.20;;;24.80;99.90;;;;;;5023909;28;20041;-95
2021/08/21 10:12:06;;;;;;;3.58;0.95;;;24.80;99.90;;;;;;5022883;28;20038;-96
2021/08/21 10:14:33;;;;;;;2.97;1.17;;;25.10;99.90;;;;;;5022670;28;20034;-92
2021/08/21 10:16:58;;;;;;;3.20;1.73;;;25.20;99.90;;;;;;5002243;28;20065;-95
2021/08/21 10:19:24;;;;;;;3.83;0.95;;;25.10;99.90;;;;;;4970199;28;20031;-94
2021/08/21 10:21:55;;;;;;;2.17;0.90;;;24.90;99.90;;;;;;4972043;28;20103;-92
2021/08/21 10:24:30;;;;;;;3.60;0.70;;;25.00;99.90;;;;;;4994610;28;20038;-91
2021/08/21 10:27:05;;;;;;;2.58;0.60;;;24.60;99.90;;;;;;5006639;28;20081;-96
2021/08/21 10:29:32;;;;;;;2.30;1.20;;;24.50;99.90;;;;;;5007606;28;20098;-96
2021/08/21 10:31:57;;;;;;;5.28;1.10;;;24.30;99.90;;;;;;4990177;28;20045;-96
2021/08/21 10:34:23;;;;;;;2.80;1.00;;;24.60;99.90;;;;;;5005141;28;20091;-96
2021/08/21 10:36:53;;;;;;;2.15;1.13;;;25.10;99.90;;;;;;4996116;28;20407;-93
2021/08/21 10:39:24;;;;;;;1.70;0.70;;;25.30;99.90;;;;;;4994024;28;20039;-91
2021/08/21 10:41:52;;;;;;;4.13;1.70;;;25.30;99.90;;;;;;4997427;28;20035;-96
2021/08/21 10:44:44;;;;;;;3.25;0.85;;;25.20;99.90;;;;;;4989084;28;20494;-92
2021/08/21 10:47:29;;;;;;;2.83;1.10;;;25.30;99.90;;;;;;4987186;28;20034;-94
2021/08/21 10:49:56;;;;;;;2.67;0.85;;;25.30;99.90;;;;;;4985839;28;20079;-91
2021/08/21 10:52:53;;;;;;;3.00;0.80;;;25.70;99.90;;;;;;4969873;28;20417;-89
2021/08/21 10:55:33;;;;;;;3.03;1.55;;;25.30;99.90;;;;;;5016462;28;20052;-88
2021/08/21 10:58:26;;;;;;;3.75;1.88;;;24.80;99.90;;;;;;5015975;28;20035;-90
2021/08/21 11:00:56;;;;;;;3.92;2.38;;;24.90;99.90;;;;;;5003092;28;20035;-94
2021/08/21 11:03:25;;;;;;;3.88;2.03;;;25.10;99.90;;;;;;5005313;28;20037;-93
2021/08/21 11:05:56;;;;;;;5.25;2.83;;;25.00;99.90;;;;;;5005007;28;20030;-92
2021/08/21 11:08:24;;;;;;;3.30;2.20;;;24.70;99.90;;;;;;5015531;28;20050;-92
2021/08/21 11:11:14;;;;;;;3.05;1.48;;;24.50;99.90;;;;;;4988714;28;20053;-92
2021/08/21 11:13:47;;;;;;;3.92;1.42;;;24.80;99.90;;;;;;4988755;28;20058;-93
2021/08/21 11:16:13;;;;;;;2.05;1.00;;;24.70;99.90;;;;;;5004817;28;20077;-90
2021/08/21 11:18:50;;;;;;;1.60;0.90;;;25.10;99.90;;;;;;5004805;28;20046;-94
2021/08/21 11:21:35;;;;;;;2.30;0.70;;;25.60;99.90;;;;;;5005147;28;20034;-92
2021/08/21 11:24:01;;;;;;;1.83;0.73;;;26.00;99.90;;;;;;5001443;28;20089;-92
2021/08/21 11:26:27;;;;;;;1.77;0.90;;;25.90;99.90;;;;;;4970257;28;20029;-94
2021/08/21 11:29:09;;;;;;;2.35;1.33;;;25.70;99.90;;;;;;4971840;28;20102;-94
2021/08/21 11:31:52;;;;;;;3.88;0.80;;;24.30;99.90;;;;;;5003727;28;20042;-90
2021/08/21 11:34:18;;;;;;;3.58;1.17;;;24.20;99.90;;;;;;4992813;28;20039;-93
2021/08/21 11:36:45;;;;;;;2.88;1.40;;;24.10;99.90;;;;;;5006035;28;20034;-92
2021/08/21 11:39:15;;;;;;;1.65;0.80;;;24.60;99.90;;;;;;4991564;28;20035;-95
2021/08/21 11:41:53;;;;;;;3.30;0.80;;;24.90;99.90;;;;;;4989110;28;20606;-94
2021/08/21 11:44:30;;;;;;;3.10;0.70;;;25.10;99.90;;;;;;4988295;28;20030;-91
2021/08/21 11:47:30;;;;;;;2.58;0.93;;;25.60;99.90;;;;;;5003554;28;20026;-92
2021/08/21 11:49:56;;;;;;;3.63;0.88;;;25.30;99.90;;;;;;4986645;28;20027;-89
2021/08/21 11:52:21;;;;;;;2.15;0.70;;;25.30;99.90;;;;;;4979616;28;20113;-93
2021/08/21 11:54:52;;;;;;;1.98;0.70;;;25.20;99.90;;;;;;4992784;28;20050;-93
2021/08/21 11:57:18;;;;;;;1.90;0.80;;;24.80;99.90;;;;;;4990642;28;20054;-93
2021/08/21 11:59:54;;;;;;;2.17;0.88;;;24.70;99.90;;;;;;5001581;28;20033;-94
2021/08/21 12:02:19;;;;;;;3.80;1.27;;;24.50;99.90;;;;;;4969982;28;20061;-93
2021/08/21 12:04:54;;;;;;;2.83;0.82;;;24.80;99.90;;;;;;4968911;28;20054;-93
2021/08/21 12:07:33;;;;;;;2.67;0.85;;;25.00;99.90;;;;;;4968874;28;20043;-93
2021/08/21 12:09:58;;;;;;;3.38;0.70;;;24.90;99.90;;;;;;4985089;28;20046;-94
2021/08/21 12:12:24;;;;;;;2.42;0.80;;;24.80;99.90;;;;;;4984992;28;20042;-94
2021/08/21 12:14:50;;;;;;;2.92;0.93;;;24.80;99.90;;;;;;4968855;28;20031;-93
2021/08/21 12:17:16;;;;;;;4.00;1.05;;;24.90;99.90;;;;;;4978462;28;20038;-94
2021/08/21 12:19:42;;;;;;;2.60;1.05;;;24.90;99.90;;;;;;5004354;28;20034;-94
2021/08/21 12:22:09;;;;;;;2.63;0.98;;;24.60;99.90;;;;;;5004580;28;20038;-96
2021/08/21 12:24:35;;;;;;;2.55;1.08;;;24.60;99.90;;;;;;4988461;28;20041;-95
2021/08/21 12:27:00;;;;;;;2.90;1.27;;;24.50;99.90;;;;;;5004713;28;20035;-94
2021/08/21 12:29:32;;;;;;;2.42;0.88;;;24.60;99.90;;;;;;5004251;28;20031;-93
2021/08/21 12:32:00;;;;;;;2.88;0.90;;;25.00;99.90;;;;;;5021110;28;20046;-93
2021/08/21 12:34:28;;;;;;;2.33;0.85;;;25.00;99.90;;;;;;5021424;28;20035;-93
2021/08/21 12:36:59;;;;;;;2.47;0.93;;;24.90;99.90;;;;;;5004684;28;20042;-95
2021/08/21 12:39:28;;;;;;;2.50;1.00;;;24.80;99.90;;;;;;5004631;28;20138;-92
2021/08/21 12:42:00;;;;;;;2.22;0.90;;;25.00;99.90;;;;;;5010956;28;20153;-96
2021/08/21 12:44:37;;;;;;;2.45;0.77;;;25.00;99.90;;;;;;5013444;28;20030;-96
2021/08/21 12:47:18;;;;;;;1.73;0.95;;;24.90;99.90;;;;;;5022028;23;20066;-94
2021/08/21 12:49:47;;;;;;;2.20;0.98;;;24.60;99.90;;;;;;4988690;28;20043;-96
2021/08/21 12:52:18;;;;;;;1.40;0.75;;;24.50;99.90;;;;;;4989415;28;20053;-96
2021/08/21 12:54:56;;;;;;;1.65;0.70;;;24.60;99.90;;;;;;4989789;28;20056;-96